Brookside, Alabama
Current Conditions -  °F | °C
As of 5:53 PM on Thursday 27 Nov 2014 (Local Time) from KBHM Reporting Station
Scattered Clouds Scattered Clouds  
Wind Chill: 36°   Ceiling: Unl
Heat Index: 40°   Visibility: 10mi
Dew Point: 28°   Wind: 6mph
Humidity: 63%   Direction: 350°N
Pressure: 30.43"   Gusts: NA
Location:  33.64°N, 86.92°W
Report Text: KBHM 272353Z 35005KT 10SM SCT040 04/M02 A3043 RMK AO2 SLP307 T00441022 10083 20044 51010
Loading
Personal Weather Stations






























Interactive Weather Map New forecast layout! Learn more

10-Day Weather Forecast

Advertisements
Track Severe Weather on mobile